createdAt,value
2022-11-30T00:01:24.135Z,101888.66
2022-11-30T00:03:57.316Z,101894.19
2022-11-30T00:06:24.789Z,101889.22
2022-11-30T00:08:56.355Z,101889.41
2022-11-30T00:11:26.416Z,101890.13
2022-11-30T00:13:53.737Z,101891.78
2022-11-30T00:16:21.192Z,101894.31
2022-11-30T00:18:47.986Z,101895.28
2022-11-30T00:21:15.976Z,101900.84
2022-11-30T00:23:45.612Z,101896.13
2022-11-30T00:26:18.534Z,101892.84
2022-11-30T00:28:46.022Z,101908.19
2022-11-30T00:31:15.678Z,101905.59
2022-11-30T00:33:43.318Z,101894.81
2022-11-30T00:36:15.121Z,101902.34
2022-11-30T00:38:42.537Z,101900.06
2022-11-30T00:41:10.629Z,101903.22
2022-11-30T00:43:37.431Z,101900.72
2022-11-30T00:46:04.677Z,101904.78
2022-11-30T00:48:31.431Z,101903.22
2022-11-30T00:50:58.366Z,101905.94
2022-11-30T00:53:25.194Z,101899.66
2022-11-30T00:55:51.939Z,101914.94
2022-11-30T00:58:19.664Z,101907.19
2022-11-30T01:00:46.414Z,101912.66
2022-11-30T01:03:13.717Z,101921.91
2022-11-30T01:05:43.078Z,101914.19
2022-11-30T01:08:12.249Z,101910.53
2022-11-30T01:10:41.806Z,101908.31
2022-11-30T01:13:09.173Z,101920.78
2022-11-30T01:15:40.340Z,101915.91
2022-11-30T01:18:07.525Z,101926.25
2022-11-30T01:20:34.404Z,101928.16
2022-11-30T01:23:01.380Z,101929.25
2022-11-30T01:25:27.992Z,101933.53
2022-11-30T01:27:54.695Z,101932.69
2022-11-30T01:30:21.501Z,101932.09
2022-11-30T01:32:48.289Z,101934.91
2022-11-30T01:35:14.969Z,101930.72
2022-11-30T01:37:41.743Z,101927.34
2022-11-30T01:40:10.951Z,101932.59
2022-11-30T01:42:38.013Z,101929.00
2022-11-30T01:45:07.242Z,101923.78
2022-11-30T01:47:40.460Z,101925.84
2022-11-30T01:50:33.495Z,101927.91
2022-11-30T01:53:03.284Z,101922.63
2022-11-30T01:55:36.016Z,101915.88
2022-11-30T01:58:23.999Z,101925.59
2022-11-30T02:00:53.193Z,101932.44
2022-11-30T02:03:40.439Z,101928.50
2022-11-30T02:06:08.329Z,101916.38
2022-11-30T02:08:35.178Z,101931.09
2022-11-30T02:11:09.833Z,101924.81
2022-11-30T02:14:10.613Z,101929.75
2022-11-30T02:16:47.008Z,101930.44
2022-11-30T02:19:13.759Z,101930.66
2022-11-30T02:21:48.917Z,101927.44
2022-11-30T02:24:34.029Z,101932.50
2022-11-30T02:27:20.255Z,101928.66
2022-11-30T02:30:21.829Z,101926.16
2022-11-30T02:32:48.461Z,101928.75
2022-11-30T02:35:19.633Z,101928.66
2022-11-30T02:37:47.039Z,101926.88
2022-11-30T02:40:17.940Z,101924.41
2022-11-30T02:42:45.047Z,101934.47
2022-11-30T02:45:12.315Z,101938.41
2022-11-30T02:47:51.631Z,101929.53
2022-11-30T02:50:47.771Z,101942.97
2022-11-30T02:53:14.592Z,101932.75
2022-11-30T02:55:41.417Z,101931.19
2022-11-30T02:58:08.415Z,101933.03
2022-11-30T03:00:35.207Z,101938.63
2022-11-30T03:03:02.026Z,101949.97
2022-11-30T03:05:28.749Z,101937.34
2022-11-30T03:07:55.585Z,101933.88
2022-11-30T03:10:22.324Z,101946.50
2022-11-30T03:12:49.197Z,101945.50
2022-11-30T03:15:15.876Z,101943.09
2022-11-30T03:17:42.616Z,101935.09
2022-11-30T03:20:10.075Z,101935.13
2022-11-30T03:22:36.916Z,101936.44
2022-11-30T03:25:03.719Z,101937.19
2022-11-30T03:27:30.589Z,101943.78
2022-11-30T03:29:57.294Z,101943.16
2022-11-30T03:32:23.986Z,101943.91
2022-11-30T03:34:50.682Z,101944.16
2022-11-30T03:37:17.693Z,101942.09
2022-11-30T03:39:44.586Z,101956.25
2022-11-30T03:42:11.252Z,101949.47
2022-11-30T03:44:37.945Z,101947.44
2022-11-30T03:47:04.694Z,101951.09
2022-11-30T03:49:31.306Z,101963.97
2022-11-30T03:51:58.224Z,101952.22
2022-11-30T03:54:24.890Z,101951.94
2022-11-30T03:56:51.622Z,101958.69
2022-11-30T03:59:18.474Z,101953.81
2022-11-30T04:01:45.288Z,101957.91
2022-11-30T04:04:12.493Z,101959.63
2022-11-30T04:06:40.652Z,101965.63
2022-11-30T04:09:07.273Z,101960.22
2022-11-30T04:11:34.067Z,101967.09
2022-11-30T04:14:00.798Z,101967.72
2022-11-30T04:16:27.645Z,101967.22
2022-11-30T04:18:54.388Z,101962.16
2022-11-30T04:21:21.180Z,101964.56
2022-11-30T04:23:47.939Z,101966.53
2022-11-30T04:26:16.874Z,101971.28
2022-11-30T04:28:43.819Z,101963.16
2022-11-30T04:31:12.254Z,101972.47
2022-11-30T04:33:39.513Z,101974.13
2022-11-30T04:36:15.802Z,101972.94
2022-11-30T04:38:42.592Z,101981.44
2022-11-30T04:41:09.669Z,101981.81
2022-11-30T04:43:37.105Z,101978.88
2022-11-30T04:46:05.329Z,101983.91
2022-11-30T04:48:32.210Z,101981.25
2022-11-30T04:51:04.332Z,101986.66
2022-11-30T04:53:31.154Z,101976.09
2022-11-30T04:55:57.861Z,101982.06
2022-11-30T04:58:24.934Z,101980.25
2022-11-30T05:00:55.266Z,101991.16
2022-11-30T05:03:22.134Z,101980.19
2022-11-30T05:05:48.973Z,101989.91
2022-11-30T05:08:15.700Z,101996.72
2022-11-30T05:10:42.509Z,101999.97
2022-11-30T05:13:09.369Z,102006.69
2022-11-30T05:15:36.006Z,102007.22
2022-11-30T05:18:03.332Z,102006.97
2022-11-30T05:20:30.208Z,102001.66
2022-11-30T05:22:57.766Z,102012.50
2022-11-30T05:25:24.625Z,102013.41
2022-11-30T05:27:51.448Z,102010.78
2022-11-30T05:30:18.448Z,102016.59
2022-11-30T05:32:45.209Z,102022.50
2022-11-30T05:35:11.985Z,102019.72
2022-11-30T05:37:38.779Z,102019.19
2022-11-30T05:40:06.636Z,102027.28
2022-11-30T05:42:33.376Z,102026.75
2022-11-30T05:45:00.067Z,102031.78
2022-11-30T05:47:26.767Z,102017.47
2022-11-30T05:49:53.428Z,102021.88
2022-11-30T05:52:20.251Z,102025.38
2022-11-30T05:54:47.390Z,102021.19
2022-11-30T05:57:14.309Z,102023.84
2022-11-30T05:59:40.976Z,102034.16
2022-11-30T06:02:07.794Z,102033.22
2022-11-30T06:04:34.886Z,102039.41
2022-11-30T06:07:01.561Z,102037.19
2022-11-30T06:09:28.920Z,102040.50
2022-11-30T06:11:55.670Z,102042.59
2022-11-30T06:14:22.326Z,102043.38
2022-11-30T06:16:49.046Z,102042.06
2022-11-30T06:19:15.844Z,102050.19
2022-11-30T06:21:42.549Z,102051.00
2022-11-30T06:24:10.109Z,102056.91
2022-11-30T06:26:36.964Z,102054.25
2022-11-30T06:29:03.852Z,102057.63
2022-11-30T06:31:33.347Z,102063.47
2022-11-30T06:34:00.134Z,102059.81
2022-11-30T06:36:31.313Z,102056.69
2022-11-30T06:39:02.399Z,102061.59
2022-11-30T06:41:29.194Z,102058.09
2022-11-30T06:43:55.989Z,102063.31
2022-11-30T06:46:22.716Z,102065.47
2022-11-30T06:48:50.722Z,102065.16
2022-11-30T06:51:17.874Z,102069.78
2022-11-30T06:53:45.978Z,102075.84
2022-11-30T06:56:12.904Z,102069.19
2022-11-30T06:58:40.677Z,102073.03
2022-11-30T07:01:10.374Z,102078.16
2022-11-30T07:03:37.717Z,102078.03
2022-11-30T07:06:13.151Z,102078.84
2022-11-30T07:08:41.796Z,102086.44
2022-11-30T07:11:10.162Z,102087.84
2022-11-30T07:13:37.975Z,102086.44
2022-11-30T07:16:07.332Z,102092.06
2022-11-30T07:18:34.911Z,102093.28
2022-11-30T07:21:04.675Z,102104.72
2022-11-30T07:23:55.853Z,102100.13
2022-11-30T07:26:23.828Z,102100.72
2022-11-30T07:28:54.998Z,102103.31
2022-11-30T07:31:31.419Z,102103.59
2022-11-30T07:34:02.732Z,102107.13
2022-11-30T07:36:30.541Z,102111.31
2022-11-30T07:38:58.198Z,102112.28
2022-11-30T07:41:25.092Z,102107.97
2022-11-30T07:43:52.017Z,102105.19
2022-11-30T07:46:19.826Z,102110.94
2022-11-30T07:48:46.848Z,102112.53
2022-11-30T07:51:20.574Z,102116.06
2022-11-30T07:53:48.343Z,102109.84
2022-11-30T07:56:18.515Z,102108.78
2022-11-30T07:58:46.236Z,102123.06
2022-11-30T08:01:17.278Z,102119.66
2022-11-30T08:03:44.177Z,102118.91
2022-11-30T08:06:15.294Z,102114.38
2022-11-30T08:08:45.777Z,102117.78
2022-11-30T08:11:16.004Z,102114.63
2022-11-30T08:13:43.184Z,102126.88
2022-11-30T08:16:16.431Z,102123.78
2022-11-30T08:18:43.976Z,102125.34
2022-11-30T08:21:13.595Z,102123.69
2022-11-30T08:23:43.603Z,102131.28
2022-11-30T08:26:13.851Z,102131.59
2022-11-30T08:28:42.549Z,102137.56
2022-11-30T08:31:13.983Z,102135.06
2022-11-30T08:33:40.948Z,102127.72
2022-11-30T08:36:12.829Z,102143.44
2022-11-30T08:38:42.582Z,102143.44
2022-11-30T08:41:12.168Z,102150.09
2022-11-30T08:43:39.533Z,102148.09
2022-11-30T08:46:27.896Z,102154.72
2022-11-30T08:49:12.940Z,102152.44
2022-11-30T08:52:15.534Z,102157.72
2022-11-30T08:54:29.569Z,102153.91
2022-11-30T08:56:56.272Z,102163.34
2022-11-30T08:59:23.159Z,102165.19
2022-11-30T09:01:49.839Z,102155.94
2022-11-30T09:04:16.574Z,102157.22
2022-11-30T09:06:43.189Z,102154.00
2022-11-30T09:09:09.963Z,102162.53
2022-11-30T09:11:36.612Z,102154.41
2022-11-30T09:14:04.810Z,102164.78
2022-11-30T09:16:32.753Z,102157.78
2022-11-30T09:18:59.732Z,102159.75
2022-11-30T09:21:26.779Z,102168.66
2022-11-30T09:23:55.431Z,102154.50
2022-11-30T09:26:25.146Z,102157.63
2022-11-30T09:28:53.954Z,102154.88
2022-11-30T09:31:26.347Z,102151.69
2022-11-30T09:33:56.351Z,102156.13
2022-11-30T09:36:27.256Z,102150.13
2022-11-30T09:38:56.819Z,102156.00
2022-11-30T09:42:10.686Z,102159.31
2022-11-30T09:45:12.849Z,102159.34
2022-11-30T09:48:08.641Z,102158.66
2022-11-30T09:50:44.933Z,102157.47
2022-11-30T09:53:22.107Z,102161.44
2022-11-30T09:55:54.910Z,102157.88
2022-11-30T09:58:46.778Z,102166.59
2022-11-30T10:01:21.224Z,102168.88
2022-11-30T10:03:48.259Z,102161.16
2022-11-30T10:06:29.121Z,102158.22
2022-11-30T10:09:09.354Z,102165.22
2022-11-30T10:12:01.768Z,102162.78
2022-11-30T10:15:12.617Z,102160.50
2022-11-30T10:17:56.460Z,102165.47
2022-11-30T10:21:22.881Z,102157.75
2022-11-30T10:24:21.290Z,102157.94
2022-11-30T10:26:57.730Z,102160.94
2022-11-30T10:29:29.642Z,102161.72
2022-11-30T10:32:00.236Z,102167.06
2022-11-30T10:34:36.127Z,102159.81
2022-11-30T10:37:05.322Z,102159.72
2022-11-30T10:39:54.375Z,102167.94
2022-11-30T10:42:42.611Z,102154.41
2022-11-30T10:45:17.568Z,102159.22
2022-11-30T10:48:03.770Z,102157.44
2022-11-30T10:50:31.599Z,102147.59
2022-11-30T10:53:00.695Z,102157.88
2022-11-30T10:55:34.901Z,102148.94
2022-11-30T10:58:22.733Z,102153.72
2022-11-30T11:01:11.273Z,102158.91
2022-11-30T11:03:38.497Z,102161.34
2022-11-30T11:06:14.562Z,102152.34
2022-11-30T11:08:42.556Z,102152.03
2022-11-30T11:11:52.510Z,102149.03
2022-11-30T11:14:24.106Z,102151.06
2022-11-30T11:17:03.252Z,102146.97
2022-11-30T11:19:42.291Z,102150.03
2022-11-30T11:22:24.743Z,102155.13
2022-11-30T11:25:20.406Z,102149.63
2022-11-30T11:27:54.586Z,102155.16
2022-11-30T11:30:27.311Z,102155.25
2022-11-30T11:33:23.607Z,102151.78
2022-11-30T11:35:55.544Z,102155.88
2022-11-30T11:38:30.516Z,102163.03
2022-11-30T11:41:02.892Z,102158.66
2022-11-30T11:43:33.661Z,102162.22
2022-11-30T11:46:13.355Z,102155.88
2022-11-30T11:48:57.337Z,102157.72
2022-11-30T11:51:37.896Z,102162.53
2022-11-30T11:54:28.171Z,102167.97
2022-11-30T11:56:57.654Z,102168.59
2022-11-30T12:00:20.750Z,102170.59
2022-11-30T12:03:33.721Z,102169.97
2022-11-30T12:06:13.293Z,102163.25
2022-11-30T12:09:01.451Z,102169.34
2022-11-30T12:11:46.981Z,102167.91
2022-11-30T12:14:19.359Z,102167.81
2022-11-30T12:17:34.255Z,102172.78
2022-11-30T12:20:19.402Z,102172.19
2022-11-30T12:23:39.615Z,102180.41
2022-11-30T12:26:24.362Z,102173.72
2022-11-30T12:29:21.913Z,102171.50
2022-11-30T12:32:12.938Z,102173.22
2022-11-30T12:35:15.780Z,102177.81
2022-11-30T12:38:25.859Z,102177.38
2022-11-30T12:41:40.390Z,102180.72
2022-11-30T12:44:29.308Z,102170.72
2022-11-30T12:47:39.439Z,102176.72
2022-11-30T12:50:36.331Z,102175.50
2022-11-30T12:53:27.354Z,102177.91
2022-11-30T12:56:46.330Z,102169.34
2022-11-30T12:59:54.639Z,102176.22
2022-11-30T13:03:09.470Z,102170.66
2022-11-30T13:06:00.041Z,102164.75
2022-11-30T13:08:51.244Z,102165.50
2022-11-30T13:11:25.708Z,102179.56
2022-11-30T13:13:57.688Z,102170.56
2022-11-30T13:16:26.444Z,102172.19
2022-11-30T13:19:07.694Z,102165.69
2022-11-30T13:21:48.665Z,102172.13
2022-11-30T13:24:32.234Z,102169.84
2022-11-30T13:27:14.011Z,102165.09
2022-11-30T13:30:17.714Z,102170.34
2022-11-30T13:33:00.081Z,102169.84
2022-11-30T13:35:29.971Z,102161.81
2022-11-30T13:41:05.280Z,102152.44
2022-11-30T13:43:55.521Z,102161.94
2022-11-30T13:46:25.006Z,102162.00
2022-11-30T13:49:24.544Z,102156.47
2022-11-30T13:52:13.676Z,102158.44
2022-11-30T13:54:57.233Z,102165.41
2022-11-30T13:57:30.070Z,102157.22
2022-11-30T14:00:03.460Z,102163.50
2022-11-30T14:02:32.002Z,102166.13
2022-11-30T14:05:16.703Z,102171.06
2022-11-30T14:08:06.487Z,102178.25
2022-11-30T14:10:34.914Z,102183.09
2022-11-30T14:13:05.356Z,102188.03
2022-11-30T14:15:38.037Z,102183.75
2022-11-30T14:18:20.122Z,102195.06
2022-11-30T14:21:03.568Z,102191.50
2022-11-30T14:23:39.117Z,102200.81
2022-11-30T14:26:17.433Z,102192.63
2022-11-30T14:29:16.772Z,102197.47
2022-11-30T14:32:13.389Z,102201.38
2022-11-30T14:34:50.349Z,102194.66
2022-11-30T14:37:33.153Z,102200.41
2022-11-30T14:40:06.929Z,102199.09
2022-11-30T14:42:35.507Z,102181.94
2022-11-30T14:45:02.708Z,102186.81
2022-11-30T14:47:35.574Z,102191.75
2022-11-30T14:50:05.770Z,102198.78
2022-11-30T14:52:57.299Z,102198.25
2022-11-30T14:56:08.329Z,102199.53
2022-11-30T14:58:55.913Z,102201.69
2022-11-30T15:01:30.615Z,102204.28
2022-11-30T15:04:06.876Z,102205.53
2022-11-30T15:06:33.996Z,102214.25
2022-11-30T15:09:02.230Z,102213.00
2022-11-30T15:11:29.632Z,102214.47
2022-11-30T15:14:09.499Z,102209.94
2022-11-30T15:16:36.906Z,102215.03
2022-11-30T15:19:33.122Z,102222.06
2022-11-30T15:22:00.579Z,102221.63
2022-11-30T15:24:29.336Z,102222.50
2022-11-30T15:27:11.047Z,102216.38
2022-11-30T15:29:47.840Z,102228.63
2022-11-30T15:32:25.197Z,102230.25
2022-11-30T15:34:57.354Z,102234.91
2022-11-30T15:37:30.710Z,102235.66
2022-11-30T15:40:00.681Z,102236.94
2022-11-30T15:42:40.086Z,102239.47
2022-11-30T15:45:24.964Z,102242.00
2022-11-30T15:47:54.032Z,102248.44
2022-11-30T15:50:26.718Z,102244.28
2022-11-30T15:52:59.995Z,102247.84
2022-11-30T15:55:52.455Z,102246.50
2022-11-30T15:58:46.094Z,102247.72
2022-11-30T16:01:20.391Z,102249.34
2022-11-30T16:03:56.138Z,102263.00
2022-11-30T16:06:30.413Z,102260.63
2022-11-30T16:08:58.838Z,102262.44
2022-11-30T16:11:25.839Z,102264.94
2022-11-30T16:13:52.601Z,102275.53
2022-11-30T16:16:28.717Z,102272.78
2022-11-30T16:18:55.584Z,102276.69
2022-11-30T16:21:22.376Z,102270.81
2022-11-30T16:23:49.274Z,102270.19
2022-11-30T16:29:05.994Z,102278.41
2022-11-30T16:31:32.740Z,102280.34
2022-11-30T16:33:59.470Z,102287.94
2022-11-30T16:36:26.369Z,102274.63
2022-11-30T16:38:53.798Z,102289.78
2022-11-30T16:41:26.946Z,102297.28
2022-11-30T16:43:56.406Z,102298.03
2022-11-30T16:46:28.655Z,102307.59
2022-11-30T16:48:55.949Z,102297.34
2022-11-30T16:51:34.655Z,102307.44
2022-11-30T16:54:01.426Z,102311.47
2022-11-30T16:56:28.198Z,102318.22
2022-11-30T16:58:54.997Z,102322.91
2022-11-30T17:01:35.675Z,102320.44
2022-11-30T17:04:24.196Z,102326.03
2022-11-30T17:06:54.720Z,102320.91
2022-11-30T17:09:24.162Z,102343.00
2022-11-30T17:11:51.106Z,102338.13
2022-11-30T17:14:20.372Z,102338.22
2022-11-30T17:16:47.114Z,102332.09
2022-11-30T17:19:13.896Z,102333.00
2022-11-30T17:21:42.867Z,102345.72
2022-11-30T17:24:11.774Z,102336.94
2022-11-30T17:26:38.536Z,102336.44
2022-11-30T17:29:05.322Z,102353.59
2022-11-30T17:31:32.585Z,102351.69
2022-11-30T17:33:59.352Z,102354.59
2022-11-30T17:36:26.984Z,102354.94
2022-11-30T17:38:53.778Z,102342.63
2022-11-30T17:41:22.098Z,102357.41
2022-11-30T17:43:49.292Z,102356.13
2022-11-30T17:46:18.518Z,102355.31
2022-11-30T17:48:45.849Z,102367.91
2022-11-30T17:51:13.070Z,102366.19
2022-11-30T17:53:41.699Z,102366.03
2022-11-30T17:56:14.641Z,102373.81
2022-11-30T17:58:44.699Z,102368.25
2022-11-30T18:01:30.206Z,102373.72
2022-11-30T18:03:58.005Z,102370.53
2022-11-30T18:06:25.278Z,102383.84
2022-11-30T18:08:52.502Z,102388.47
2022-11-30T18:11:24.561Z,102384.22
2022-11-30T18:13:54.920Z,102387.13
2022-11-30T18:16:30.988Z,102390.16
2022-11-30T18:18:59.329Z,102382.59
2022-11-30T18:21:29.552Z,102386.91
2022-11-30T18:23:58.172Z,102389.22
2022-11-30T18:26:26.549Z,102395.97
2022-11-30T18:28:57.042Z,102380.94
2022-11-30T18:31:25.101Z,102393.81
2022-11-30T18:33:59.644Z,102397.41
2022-11-30T18:36:27.271Z,102396.28
2022-11-30T18:38:54.037Z,102398.25
2022-11-30T18:41:21.105Z,102399.97
2022-11-30T18:43:47.882Z,102397.50
2022-11-30T18:46:14.827Z,102406.72
2022-11-30T18:48:41.990Z,102409.66
2022-11-30T18:51:18.460Z,102412.25
2022-11-30T18:53:45.857Z,102412.28
2022-11-30T18:56:20.843Z,102410.13
2022-11-30T18:58:48.450Z,102415.47
2022-11-30T19:01:19.920Z,102416.72
2022-11-30T19:04:08.926Z,102417.50
2022-11-30T19:06:38.133Z,102418.63
2022-11-30T19:09:09.216Z,102429.19
2022-11-30T19:11:38.148Z,102429.19
2022-11-30T19:14:05.787Z,102428.81
2022-11-30T19:16:34.725Z,102422.88
2022-11-30T19:19:05.857Z,102428.81
2022-11-30T19:21:33.520Z,102431.56
2022-11-30T19:24:00.404Z,102441.50
2022-11-30T19:26:28.565Z,102437.47
2022-11-30T19:28:56.802Z,102437.41
2022-11-30T19:31:25.238Z,102437.38
2022-11-30T19:33:54.380Z,102444.91
2022-11-30T19:36:24.622Z,102452.72
2022-11-30T19:38:51.531Z,102450.31
2022-11-30T19:41:20.335Z,102450.78
2022-11-30T19:43:54.721Z,102454.63
2022-11-30T19:46:24.638Z,102453.41
2022-11-30T19:49:00.635Z,102454.44
2022-11-30T19:51:29.407Z,102456.41
2022-11-30T19:53:57.565Z,102469.00
2022-11-30T19:56:25.615Z,102466.22
2022-11-30T19:58:52.554Z,102469.16
2022-11-30T20:01:23.989Z,102469.41
2022-11-30T20:03:56.821Z,102461.41
2022-11-30T20:06:30.296Z,102461.47
2022-11-30T20:08:57.363Z,102472.34
2022-11-30T20:11:24.405Z,102468.13
2022-11-30T20:13:51.524Z,102462.94
2022-11-30T20:16:21.031Z,102469.47
2022-11-30T20:18:57.652Z,102459.41
2022-11-30T20:21:28.155Z,102471.34
2022-11-30T20:23:59.189Z,102472.69
2022-11-30T20:26:35.150Z,102466.38
2022-11-30T20:29:05.420Z,102469.19
2022-11-30T20:31:35.479Z,102471.75
2022-11-30T20:34:02.395Z,102468.28
2022-11-30T20:36:29.565Z,102467.88
2022-11-30T20:38:57.645Z,102479.78
2022-11-30T20:41:24.820Z,102482.06
2022-11-30T20:43:52.214Z,102471.16
2022-11-30T20:46:31.860Z,102477.41
2022-11-30T20:49:00.267Z,102477.53
2022-11-30T20:51:32.039Z,102478.75
2022-11-30T20:54:02.397Z,102485.66
2022-11-30T20:56:29.404Z,102481.78
2022-11-30T20:58:56.506Z,102483.16
2022-11-30T21:01:23.335Z,102482.66
2022-11-30T21:03:50.099Z,102483.91
2022-11-30T21:06:17.009Z,102485.84
2022-11-30T21:08:44.045Z,102487.06
2022-11-30T21:11:17.649Z,102484.38
2022-11-30T21:13:47.065Z,102481.13
2022-11-30T21:16:16.283Z,102489.34
2022-11-30T21:18:45.186Z,102484.25
2022-11-30T21:21:19.034Z,102486.78
2022-11-30T21:23:47.217Z,102487.59
2022-11-30T21:26:17.189Z,102482.09
2022-11-30T21:28:45.597Z,102483.91
2022-11-30T21:31:13.118Z,102486.94
2022-11-30T21:33:40.118Z,102492.25
2022-11-30T21:36:08.916Z,102489.63
2022-11-30T21:38:35.985Z,102489.31
2022-11-30T21:41:03.650Z,102485.22
2022-11-30T21:43:34.241Z,102490.00
2022-11-30T21:46:10.631Z,102484.56
2022-11-30T21:48:39.482Z,102479.56
2022-11-30T21:51:28.251Z,102484.50
2022-11-30T21:53:58.641Z,102473.28
2022-11-30T21:56:32.390Z,102485.22
2022-11-30T21:59:00.053Z,102493.88
2022-11-30T22:01:33.577Z,102490.97
2022-11-30T22:04:02.913Z,102490.94
2022-11-30T22:06:31.491Z,102501.22
2022-11-30T22:09:03.488Z,102493.19
2022-11-30T22:11:31.031Z,102506.00
2022-11-30T22:13:57.862Z,102501.50
2022-11-30T22:16:28.820Z,102500.50
2022-11-30T22:19:01.018Z,102497.41
2022-11-30T22:21:30.715Z,102495.06
2022-11-30T22:24:04.810Z,102504.22
2022-11-30T22:26:39.737Z,102506.84
2022-11-30T22:29:09.573Z,102502.88
2022-11-30T22:31:41.665Z,102497.94
2022-11-30T22:34:09.496Z,102504.88
2022-11-30T22:36:40.623Z,102502.13
2022-11-30T22:39:12.639Z,102506.06
2022-11-30T22:41:41.666Z,102504.66
2022-11-30T22:44:13.080Z,102508.53
2022-11-30T22:46:40.149Z,102510.22
2022-11-30T22:49:09.955Z,102511.13
2022-11-30T22:51:38.132Z,102499.16
2022-11-30T22:54:06.421Z,102498.44
2022-11-30T22:56:41.252Z,102500.19
2022-11-30T22:59:11.488Z,102502.38
2022-11-30T23:01:43.704Z,102500.16
2022-11-30T23:04:14.917Z,102491.91
2022-11-30T23:06:44.537Z,102490.53
2022-11-30T23:09:17.095Z,102495.75
2022-11-30T23:11:50.445Z,102490.38
2022-11-30T23:14:17.932Z,102487.50
2022-11-30T23:16:45.993Z,102477.91
2022-11-30T23:19:13.231Z,102487.97
2022-11-30T23:21:44.782Z,102488.53
2022-11-30T23:24:22.076Z,102471.31
2022-11-30T23:26:49.650Z,102488.69
2022-11-30T23:29:17.706Z,102487.78
2022-11-30T23:31:45.867Z,102481.75
2022-11-30T23:34:21.281Z,102480.72
2022-11-30T23:36:49.334Z,102482.47
2022-11-30T23:39:19.340Z,102485.22
2022-11-30T23:41:46.135Z,102473.19
2022-11-30T23:44:13.397Z,102483.06
2022-11-30T23:46:40.701Z,102482.28
2022-11-30T23:49:08.070Z,102483.97
2022-11-30T23:51:34.940Z,102481.78
2022-11-30T23:54:01.670Z,102484.88
2022-11-30T23:56:28.355Z,102483.16
2022-11-30T23:58:55.257Z,102478.41
